sensor_id;sensor_type;location;lat;lon;timestamp;pressure;altitude;pressure_sealevel;temperature;humidity
37132;BME280;23035;50.032;21.978;2023-02-21T00:00:29;66018.22;;;8.14;100.00
37132;BME280;23035;50.032;21.978;2023-02-21T00:06:00;65973.25;;;7.71;100.00
37132;BME280;23035;50.032;21.978;2023-02-21T00:11:22;65943.13;;;7.38;100.00
37132;BME280;23035;50.032;21.978;2023-02-21T00:16:45;65912.72;;;7.11;100.00
37132;BME280;23035;50.032;21.978;2023-02-21T00:22:08;65903.00;;;7.00;100.00
37132;BME280;23035;50.032;21.978;2023-02-21T00:27:30;65895.44;;;6.90;100.00
37132;BME280;23035;50.032;21.978;2023-02-21T00:32:51;65893.38;;;6.90;100.00
37132;BME280;23035;50.032;21.978;2023-02-21T00:38:15;65895.53;;;6.93;100.00
37132;BME280;23035;50.032;21.978;2023-02-21T00:43:37;65907.38;;;7.06;100.00
37132;BME280;23035;50.032;21.978;2023-02-21T00:48:59;65931.34;;;7.27;100.00
37132;BME280;23035;50.032;21.978;2023-02-21T00:54:23;65943.31;;;7.43;100.00
37132;BME280;23035;50.032;21.978;2023-02-21T00:59:45;65988.50;;;7.79;100.00
37132;BME280;23035;50.032;21.978;2023-02-21T01:05:07;65974.16;;;7.67;100.00
37132;BME280;23035;50.032;21.978;2023-02-21T01:10:30;66004.03;;;7.93;100.00
37132;BME280;23035;50.032;21.978;2023-02-21T01:15:52;66014.19;;;8.03;100.00
37132;BME280;23035;50.032;21.978;2023-02-21T01:21:16;66006.28;;;7.98;100.00
37132;BME280;23035;50.032;21.978;2023-02-21T01:26:40;66033.03;;;8.23;100.00
37132;BME280;23035;50.032;21.978;2023-02-21T01:32:02;66025.09;;;8.18;100.00
37132;BME280;23035;50.032;21.978;2023-02-21T01:37:23;66019.72;;;8.13;100.00
37132;BME280;23035;50.032;21.978;2023-02-21T01:42:47;66025.53;;;8.16;100.00
37132;BME280;23035;50.032;21.978;2023-02-21T01:48:11;66016.06;;;8.12;100.00
37132;BME280;23035;50.032;21.978;2023-02-21T01:53:33;66028.13;;;8.16;100.00
37132;BME280;23035;50.032;21.978;2023-02-21T01:58:59;66014.19;;;8.03;100.00
37132;BME280;23035;50.032;21.978;2023-02-21T02:04:22;65987.00;;;7.80;100.00
37132;BME280;23035;50.032;21.978;2023-02-21T02:09:44;65994.66;;;7.92;100.00
37132;BME280;23035;50.032;21.978;2023-02-21T02:15:21;66014.91;;;8.09;100.00
37132;BME280;23035;50.032;21.978;2023-02-21T02:32:36;66013.31;;;8.07;100.00
37132;BME280;23035;50.032;21.978;2023-02-21T02:37:48;66013.22;;;8.04;100.00
37132;BME280;23035;50.032;21.978;2023-02-21T02:43:02;65998.78;;;7.91;100.00
37132;BME280;23035;50.032;21.978;2023-02-21T02:48:20;66013.75;;;8.05;100.00
37132;BME280;23035;50.032;21.978;2023-02-21T02:53:28;66004.75;;;7.99;100.00
37132;BME280;23035;50.032;21.978;2023-02-21T02:58:38;66012.69;;;8.04;100.00
37132;BME280;23035;50.032;21.978;2023-02-21T03:03:55;65996.19;;;7.91;100.00
37132;BME280;23035;50.032;21.978;2023-02-21T03:09:09;65994.03;;;7.89;100.00
37132;BME280;23035;50.032;21.978;2023-02-21T03:14:19;65990.22;;;7.83;100.00
37132;BME280;23035;50.032;21.978;2023-02-21T03:19:30;65995.19;;;7.92;100.00
37132;BME280;23035;50.032;21.978;2023-02-21T03:24:38;66001.53;;;7.96;100.00
37132;BME280;23035;50.032;21.978;2023-02-21T03:29:44;66001.34;;;7.91;100.00
37132;BME280;23035;50.032;21.978;2023-02-21T03:34:50;66002.50;;;7.94;100.00
37132;BME280;23035;50.032;21.978;2023-02-21T03:39:58;66002.50;;;7.94;100.00
37132;BME280;23035;50.032;21.978;2023-02-21T03:45:06;65997.25;;;7.92;100.00
37132;BME280;23035;50.032;21.978;2023-02-21T03:50:12;65991.28;;;7.84;100.00
37132;BME280;23035;50.032;21.978;2023-02-21T03:55:21;65993.94;;;7.86;100.00
37132;BME280;23035;50.032;21.978;2023-02-21T04:00:26;65996.63;;;7.89;100.00
37132;BME280;23035;50.032;21.978;2023-02-21T04:05:32;65999.84;;;7.92;100.00
37132;BME280;23035;50.032;21.978;2023-02-21T04:10:40;65991.47;;;7.89;100.00
37132;BME280;23035;50.032;21.978;2023-02-21T04:15:59;65985.66;;;7.86;100.00
37132;BME280;23035;50.032;21.978;2023-02-21T04:21:06;65982.28;;;7.78;100.00
37132;BME280;23035;50.032;21.978;2023-02-21T04:26:16;65993.59;;;7.91;100.00
37132;BME280;23035;50.032;21.978;2023-02-21T04:31:26;65987.63;;;7.83;100.00
37132;BME280;23035;50.032;21.978;2023-02-21T04:36:37;65997.78;;;7.92;100.00
37132;BME280;23035;50.032;21.978;2023-02-21T04:41:44;66003.69;;;7.98;100.00
37132;BME280;23035;50.032;21.978;2023-02-21T04:46:51;66002.16;;;7.99;100.00
37132;BME280;23035;50.032;21.978;2023-02-21T04:51:59;65995.19;;;7.92;100.00
37132;BME280;23035;50.032;21.978;2023-02-21T04:57:08;65989.22;;;7.84;100.00
37132;BME280;23035;50.032;21.978;2023-02-21T05:02:16;65991.72;;;7.82;100.00
37132;BME280;23035;50.032;21.978;2023-02-21T05:07:24;65989.59;;;7.80;100.00
37132;BME280;23035;50.032;21.978;2023-02-21T05:12:33;65982.63;;;7.73;100.00
37132;BME280;23035;50.032;21.978;2023-02-21T05:17:42;65972.13;;;7.68;100.00
37132;BME280;23035;50.032;21.978;2023-02-21T05:22:50;65981.63;;;7.74;100.00
37132;BME280;23035;50.032;21.978;2023-02-21T05:28:03;65985.94;;;7.79;100.00
37132;BME280;23035;50.032;21.978;2023-02-21T05:33:10;65988.50;;;7.79;100.00
37132;BME280;23035;50.032;21.978;2023-02-21T05:38:19;65986.91;;;7.77;100.00
37132;BME280;23035;50.032;21.978;2023-02-21T05:43:28;65983.97;;;7.82;100.00
37132;BME280;23035;50.032;21.978;2023-02-21T05:48:38;65991.72;;;7.82;100.00
37132;BME280;23035;50.032;21.978;2023-02-21T05:53:46;65983.34;;;7.79;100.00
37132;BME280;23035;50.032;21.978;2023-02-21T05:58:55;65967.81;;;7.64;100.00
37132;BME280;23035;50.032;21.978;2023-02-21T06:04:03;65944.28;;;7.41;100.00
37132;BME280;23035;50.032;21.978;2023-02-21T06:09:19;65927.69;;;7.26;100.00
37132;BME280;23035;50.032;21.978;2023-02-21T06:14:43;65920.66;;;7.16;100.00
37132;BME280;23035;50.032;21.978;2023-02-21T06:19:51;65931.09;;;7.34;100.00
37132;BME280;23035;50.032;21.978;2023-02-21T06:24:58;65891.25;;;6.88;100.00
37132;BME280;23035;50.032;21.978;2023-02-21T06:30:09;65854.44;;;6.56;100.00
37132;BME280;23035;50.032;21.978;2023-02-21T06:35:16;65863.97;;;6.63;100.00
37132;BME280;23035;50.032;21.978;2023-02-21T06:40:23;65877.34;;;6.75;100.00
37132;BME280;23035;50.032;21.978;2023-02-21T06:45:30;65875.81;;;6.76;100.00
37132;BME280;23035;50.032;21.978;2023-02-21T06:50:36;65879.47;;;6.77;100.00
37132;BME280;23035;50.032;21.978;2023-02-21T06:55:44;65875.81;;;6.76;100.00
37132;BME280;23035;50.032;21.978;2023-02-21T07:00:53;65891.69;;;6.86;100.00
37132;BME280;23035;50.032;21.978;2023-02-21T07:06:02;65883.75;;;6.81;100.00
37132;BME280;23035;50.032;21.978;2023-02-21T07:11:09;65901.84;;;6.96;100.00
37132;BME280;23035;50.032;21.978;2023-02-21T07:16:18;65918.44;;;7.12;100.00
37132;BME280;23035;50.032;21.978;2023-02-21T07:21:26;65930.91;;;7.29;100.00
37132;BME280;23035;50.032;21.978;2023-02-21T07:26:32;65908.34;;;7.05;100.00
37132;BME280;23035;50.032;21.978;2023-02-21T07:31:42;65908.81;;;7.03;100.00
37132;BME280;23035;50.032;21.978;2023-02-21T07:36:49;65951.25;;;7.48;100.00
37132;BME280;23035;50.032;21.978;2023-02-21T07:41:57;65976.31;;;7.69;100.00
37132;BME280;23035;50.032;21.978;2023-02-21T07:47:08;65899.91;;;6.99;100.00
37132;BME280;23035;50.032;21.978;2023-02-21T07:52:16;65886.97;;;6.84;100.00
37132;BME280;23035;50.032;21.978;2023-02-21T07:57:23;65891.16;;;6.86;100.00
37132;BME280;23035;50.032;21.978;2023-02-21T08:02:32;65882.69;;;6.80;100.00
37132;BME280;23035;50.032;21.978;2023-02-21T08:07:39;65874.66;;;6.73;100.00
37132;BME280;23035;50.032;21.978;2023-02-21T08:12:45;65880.00;;;6.78;100.00
37132;BME280;23035;50.032;21.978;2023-02-21T08:17:53;65920.13;;;7.16;100.00
37132;BME280;23035;50.032;21.978;2023-02-21T08:22:58;65936.72;;;7.32;100.00
37132;BME280;23035;50.032;21.978;2023-02-21T08:28:05;65955.88;;;7.47;100.00
37132;BME280;23035;50.032;21.978;2023-02-21T08:33:15;65966.66;;;7.60;100.00
37132;BME280;23035;50.032;21.978;2023-02-21T08:38:22;65972.00;;;7.65;100.00
37132;BME280;23035;50.032;21.978;2023-02-21T08:43:29;65961.41;;;7.58;100.00
37132;BME280;23035;50.032;21.978;2023-02-21T08:48:37;65947.94;;;7.42;100.00
37132;BME280;23035;50.032;21.978;2023-02-21T08:53:43;65965.06;;;7.59;100.00
37132;BME280;23035;50.032;21.978;2023-02-21T08:58:51;65975.94;;;7.74;100.00
37132;BME280;23035;50.032;21.978;2023-02-21T09:04:01;66002.97;;;7.92;100.00
37132;BME280;23035;50.032;21.978;2023-02-21T09:09:09;65961.22;;;7.53;100.00
37132;BME280;23035;50.032;21.978;2023-02-21T09:14:17;65977.38;;;7.70;100.00
37132;BME280;23035;50.032;21.978;2023-02-21T09:19:26;65982.28;;;7.78;100.00
37132;BME280;23035;50.032;21.978;2023-02-21T09:24:33;65949.53;;;7.44;100.00
37132;BME280;23035;50.032;21.978;2023-02-21T09:29:40;65924.59;;;7.25;100.00
37132;BME280;23035;50.032;21.978;2023-02-21T09:34:51;65932.31;;;7.25;100.00
37132;BME280;23035;50.032;21.978;2023-02-21T09:39:58;65973.00;;;7.64;100.00
37132;BME280;23035;50.032;21.978;2023-02-21T09:45:07;65977.44;;;7.73;100.00
37132;BME280;23035;50.032;21.978;2023-02-21T09:50:24;65926.47;;;7.19;100.00
37132;BME280;23035;50.032;21.978;2023-02-21T09:55:37;65900.44;;;7.00;100.00
37132;BME280;23035;50.032;21.978;2023-02-21T10:00:46;65895.53;;;6.93;100.00
37132;BME280;23035;50.032;21.978;2023-02-21T10:05:59;65893.28;;;6.88;100.00
37132;BME280;23035;50.032;21.978;2023-02-21T10:11:24;65885.81;;;6.81;100.00
37132;BME280;23035;50.032;21.978;2023-02-21T10:16:39;65936.72;;;7.32;100.00
37132;BME280;23035;50.032;21.978;2023-02-21T10:21:52;65935.63;;;7.31;100.00
37132;BME280;23035;50.032;21.978;2023-02-21T10:27:05;65992.88;;;7.85;100.00
37132;BME280;23035;50.032;21.978;2023-02-21T10:32:11;66024.44;;;8.15;100.00
37132;BME280;23035;50.032;21.978;2023-02-21T10:37:32;66070.97;;;8.57;100.00
37132;BME280;23035;50.032;21.978;2023-02-21T10:42:46;66091.50;;;8.81;100.00
37132;BME280;23035;50.032;21.978;2023-02-21T10:47:59;66088.19;;;8.76;100.00
37132;BME280;23035;50.032;21.978;2023-02-21T10:53:21;66130.94;;;9.14;100.00
37132;BME280;23035;50.032;21.978;2023-02-21T10:58:29;66157.28;;;9.41;100.00
37132;BME280;23035;50.032;21.978;2023-02-21T11:03:42;66142.03;;;9.34;100.00
37132;BME280;23035;50.032;21.978;2023-02-21T11:08:50;66138.63;;;9.26;100.00
37132;BME280;23035;50.032;21.978;2023-02-21T11:14:12;66141.84;;;9.29;100.00
37132;BME280;23035;50.032;21.978;2023-02-21T11:19:24;66184.25;;;9.72;100.00
37132;BME280;23035;50.032;21.978;2023-02-21T11:24:33;66181.50;;;9.67;100.00
37132;BME280;23035;50.032;21.978;2023-02-21T11:29:42;66179.97;;;9.68;100.00
37132;BME280;23035;50.032;21.978;2023-02-21T11:34:49;66199.88;;;9.89;100.00
37132;BME280;23035;50.032;21.978;2023-02-21T11:39:57;66188.38;;;9.71;100.00
37132;BME280;23035;50.032;21.978;2023-02-21T11:45:20;66219.47;;;10.00;100.00
37132;BME280;23035;50.032;21.978;2023-02-21T11:50:36;66201.78;;;9.84;100.00
37132;BME280;23035;50.032;21.978;2023-02-21T11:55:55;66178.63;;;9.59;100.00
37132;BME280;23035;50.032;21.978;2023-02-21T12:01:08;66233.41;;;10.14;100.00
37132;BME280;23035;50.032;21.978;2023-02-21T12:06:23;66242.16;;;10.27;100.00
37132;BME280;23035;50.032;21.978;2023-02-21T12:11:50;66270.50;;;10.51;100.00
37132;BME280;23035;50.032;21.978;2023-02-21T12:17:14;66280.16;;;10.60;100.00
37132;BME280;23035;50.032;21.978;2023-02-21T12:22:40;66308.97;;;10.83;100.00
37132;BME280;23035;50.032;21.978;2023-02-21T12:27:56;66314.94;;;10.91;100.00
37132;BME280;23035;50.032;21.978;2023-02-21T12:33:17;66315.56;;;10.94;100.00
37132;BME280;23035;50.032;21.978;2023-02-21T12:38:34;66422.91;;;11.96;100.00
37132;BME280;23035;50.032;21.978;2023-02-21T12:43:56;66316.56;;;10.93;97.35
37132;BME280;23035;50.032;21.978;2023-02-21T12:49:07;66298.38;;;10.78;98.48
37132;BME280;23035;50.032;21.978;2023-02-21T12:54:19;66219.00;;;10.02;100.00
37132;BME280;23035;50.032;21.978;2023-02-21T12:59:35;66268.88;;;10.50;100.00
37132;BME280;23035;50.032;21.978;2023-02-21T13:04:49;66217.94;;;10.01;100.00
37132;BME280;23035;50.032;21.978;2023-02-21T13:10:03;66284.44;;;10.65;100.00
37132;BME280;23035;50.032;21.978;2023-02-21T13:15:19;66364.94;;;11.41;98.93
37132;BME280;23035;50.032;21.978;2023-02-21T13:20:28;66295.19;;;10.75;100.00
37132;BME280;23035;50.032;21.978;2023-02-21T13:25:47;66250.75;;;10.35;100.00
37132;BME280;23035;50.032;21.978;2023-02-21T13:31:00;66228.03;;;10.09;100.00
37132;BME280;23035;50.032;21.978;2023-02-21T13:36:23;66213.66;;;9.97;100.00
37132;BME280;23035;50.032;21.978;2023-02-21T13:41:35;66331.66;;;11.09;100.00
37132;BME280;23035;50.032;21.978;2023-02-21T13:47:06;66281.84;;;10.65;100.00
37132;BME280;23035;50.032;21.978;2023-02-21T14:03:43;66223.38;;;10.09;100.00
37132;BME280;23035;50.032;21.978;2023-02-21T14:08:53;66240.38;;;10.20;100.00
37132;BME280;23035;50.032;21.978;2023-02-21T14:14:17;66296.72;;;10.74;100.00
37132;BME280;23035;50.032;21.978;2023-02-21T14:19:30;66196.50;;;9.81;100.00
37132;BME280;23035;50.032;21.978;2023-02-21T14:24:42;66198.63;;;9.83;100.00
37132;BME280;23035;50.032;21.978;2023-02-21T14:30:26;66240.50;;;10.23;100.00
37132;BME280;23035;50.032;21.978;2023-02-21T14:35:36;66139.72;;;9.27;100.00
37132;BME280;23035;50.032;21.978;2023-02-21T14:40:52;66100.59;;;8.90;100.00
37132;BME280;23035;50.032;21.978;2023-02-21T14:46:22;66084.34;;;8.70;100.00
37132;BME280;23035;50.032;21.978;2023-02-21T14:51:53;66085.97;;;8.71;100.00
37132;BME280;23035;50.032;21.978;2023-02-21T14:57:15;66084.28;;;8.67;100.00
37132;BME280;23035;50.032;21.978;2023-02-21T15:02:29;66088.28;;;8.78;100.00
37132;BME280;23035;50.032;21.978;2023-02-21T15:07:54;66074.91;;;8.66;100.00
37132;BME280;23035;50.032;21.978;2023-02-21T15:13:03;66096.31;;;8.86;100.00
37132;BME280;23035;50.032;21.978;2023-02-21T15:18:10;66085.97;;;8.71;100.00
37132;BME280;23035;50.032;21.978;2023-02-21T15:23:20;66070.69;;;8.64;100.00
37132;BME280;23035;50.032;21.978;2023-02-21T15:28:32;66079.09;;;8.67;100.00
37132;BME280;23035;50.032;21.978;2023-02-21T15:33:38;66069.47;;;8.58;100.00
37132;BME280;23035;50.032;21.978;2023-02-21T15:38:46;66051.25;;;8.41;100.00
37132;BME280;23035;50.032;21.978;2023-02-21T15:43:56;66080.69;;;8.69;100.00
37132;BME280;23035;50.032;21.978;2023-02-21T15:49:03;66059.91;;;8.51;100.00
37132;BME280;23035;50.032;21.978;2023-02-21T15:54:23;66016.06;;;8.12;100.00
37132;BME280;23035;50.032;21.978;2023-02-21T15:59:28;66048.75;;;8.43;100.00
37132;BME280;23035;50.032;21.978;2023-02-21T16:04:35;66013.31;;;8.07;100.00
37132;BME280;23035;50.032;21.978;2023-02-21T16:09:44;66016.53;;;8.10;100.00
37132;BME280;23035;50.032;21.978;2023-02-21T16:14:56;65990.22;;;7.83;100.00
37132;BME280;23035;50.032;21.978;2023-02-21T16:20:12;65993.59;;;7.91;100.00
37132;BME280;23035;50.032;21.978;2023-02-21T16:25:21;65988.06;;;7.81;100.00
37132;BME280;23035;50.032;21.978;2023-02-21T16:30:29;65970.31;;;7.61;100.00
37132;BME280;23035;50.032;21.978;2023-02-21T16:35:34;65975.75;;;7.69;100.00
37132;BME280;23035;50.032;21.978;2023-02-21T16:40:40;65985.28;;;7.75;100.00
37132;BME280;23035;50.032;21.978;2023-02-21T16:45:45;65997.63;;;7.87;100.00
37132;BME280;23035;50.032;21.978;2023-02-21T16:50:51;65988.41;;;7.76;100.00
37132;BME280;23035;50.032;21.978;2023-02-21T16:55:58;65972.00;;;7.65;100.00
37132;BME280;23035;50.032;21.978;2023-02-21T17:01:06;65977.44;;;7.73;100.00
37132;BME280;23035;50.032;21.978;2023-02-21T17:06:15;65974.88;;;7.73;100.00
37132;BME280;23035;50.032;21.978;2023-02-21T17:11:21;65952.75;;;7.47;100.00
37132;BME280;23035;50.032;21.978;2023-02-21T17:16:25;65954.00;;;7.53;100.00
37132;BME280;23035;50.032;21.978;2023-02-21T17:21:30;65932.59;;;7.33;100.00
37132;BME280;23035;50.032;21.978;2023-02-21T17:26:36;65937.16;;;7.30;100.00
37132;BME280;23035;50.032;21.978;2023-02-21T17:31:41;65938.22;;;7.31;100.00
37132;BME280;23035;50.032;21.978;2023-02-21T17:36:47;65909.88;;;7.04;100.00
37132;BME280;23035;50.032;21.978;2023-02-21T17:41:54;65922.97;;;7.24;100.00
37132;BME280;23035;50.032;21.978;2023-02-21T17:46:58;65867.81;;;6.69;100.00
37132;BME280;23035;50.032;21.978;2023-02-21T17:52:04;65905.69;;;7.02;100.00
37132;BME280;23035;50.032;21.978;2023-02-21T17:57:10;65872.78;;;6.64;100.00
37132;BME280;23035;50.032;21.978;2023-02-21T18:02:14;65853.72;;;6.50;100.00
37132;BME280;23035;50.032;21.978;2023-02-21T18:07:20;65880.66;;;6.81;100.00
37132;BME280;23035;50.032;21.978;2023-02-21T18:12:28;65867.28;;;6.68;100.00
37132;BME280;23035;50.032;21.978;2023-02-21T18:17:32;65847.94;;;6.47;100.00
37132;BME280;23035;50.032;21.978;2023-02-21T18:22:37;65874.22;;;6.75;100.00
37132;BME280;23035;50.032;21.978;2023-02-21T18:27:44;65852.41;;;6.56;100.00
37132;BME280;23035;50.032;21.978;2023-02-21T18:32:48;65841.53;;;6.41;100.00
37132;BME280;23035;50.032;21.978;2023-02-21T18:37:53;65835.72;;;6.38;99.71
37132;BME280;23035;50.032;21.978;2023-02-21T18:42:59;65826.47;;;6.24;100.00
37132;BME280;23035;50.032;21.978;2023-02-21T18:48:05;65837.25;;;6.37;100.00
37132;BME280;23035;50.032;21.978;2023-02-21T18:53:14;65819.72;;;6.23;100.00
37132;BME280;23035;50.032;21.978;2023-02-21T18:58:20;65803.13;;;6.07;100.00
37132;BME280;23035;50.032;21.978;2023-02-21T19:03:24;65802.50;;;6.04;100.00
37132;BME280;23035;50.032;21.978;2023-02-21T19:08:29;65794.94;;;5.94;100.00
37132;BME280;23035;50.032;21.978;2023-02-21T19:13:35;65794.50;;;5.96;100.00
37132;BME280;23035;50.032;21.978;2023-02-21T19:18:40;65793.88;;;5.93;100.00
37132;BME280;23035;50.032;21.978;2023-02-21T19:23:44;65791.91;;;5.96;100.00
37132;BME280;23035;50.032;21.978;2023-02-21T19:28:50;65809.47;;;6.11;100.00
37132;BME280;23035;50.032;21.978;2023-02-21T19:33:55;65759.31;;;5.65;100.00
37132;BME280;23035;50.032;21.978;2023-02-21T19:39:01;65749.16;;;5.56;100.00
37132;BME280;23035;50.032;21.978;2023-02-21T19:44:07;65774.16;;;5.77;100.00
37132;BME280;23035;50.032;21.978;2023-02-21T19:49:12;65753.44;;;5.60;100.00
37132;BME280;23035;50.032;21.978;2023-02-21T19:54:22;65740.09;;;5.47;100.00
37132;BME280;23035;50.032;21.978;2023-02-21T19:59:30;65698.88;;;5.05;100.00
37132;BME280;23035;50.032;21.978;2023-02-21T20:04:35;65672.28;;;4.82;100.00
37132;BME280;23035;50.032;21.978;2023-02-21T20:09:40;65662.69;;;4.73;100.00
37132;BME280;23035;50.032;21.978;2023-02-21T20:14:46;65662.56;;;4.71;100.00
37132;BME280;23035;50.032;21.978;2023-02-21T20:19:51;65647.97;;;4.52;100.00
37132;BME280;23035;50.032;21.978;2023-02-21T20:24:55;65636.50;;;4.48;100.00
37132;BME280;23035;50.032;21.978;2023-02-21T20:30:02;65640.06;;;4.47;100.00
37132;BME280;23035;50.032;21.978;2023-02-21T20:35:07;65635.88;;;4.45;100.00
37132;BME280;23035;50.032;21.978;2023-02-21T20:45:22;65610.28;;;4.21;100.00
37132;BME280;23035;50.032;21.978;2023-02-21T20:50:26;65635.69;;;4.40;100.00
37132;BME280;23035;50.032;21.978;2023-02-21T20:55:32;65618.38;;;4.31;100.00
37132;BME280;23035;50.032;21.978;2023-02-21T21:00:40;65580.84;;;3.90;100.00
37132;BME280;23035;50.032;21.978;2023-02-21T21:05:45;65560.66;;;3.73;100.00
37132;BME280;23035;50.032;21.978;2023-02-21T21:10:52;65547.34;;;3.61;100.00
37132;BME280;23035;50.032;21.978;2023-02-21T21:15:58;65527.81;;;3.47;100.00
37132;BME280;23035;50.032;21.978;2023-02-21T21:21:03;65525.16;;;3.44;100.00
37132;BME280;23035;50.032;21.978;2023-02-21T21:26:08;65546.34;;;3.62;100.00
37132;BME280;23035;50.032;21.978;2023-02-21T21:31:15;65548.31;;;3.59;100.00
37132;BME280;23035;50.032;21.978;2023-02-21T21:36:21;65564.19;;;3.72;100.00
37132;BME280;23035;50.032;21.978;2023-02-21T21:41:28;65577.00;;;3.84;100.00
37132;BME280;23035;50.032;21.978;2023-02-21T21:46:43;65581.38;;;3.91;100.00
37132;BME280;23035;50.032;21.978;2023-02-21T21:51:48;65584.59;;;3.94;100.00
37132;BME280;23035;50.032;21.978;2023-02-21T21:56:53;65589.47;;;4.01;100.00
37132;BME280;23035;50.032;21.978;2023-02-21T22:01:59;65602.38;;;4.16;100.00
37132;BME280;23035;50.032;21.978;2023-02-21T22:07:05;65616.16;;;4.26;100.00
37132;BME280;23035;50.032;21.978;2023-02-21T22:12:15;65621.38;;;4.29;100.00
37132;BME280;23035;50.032;21.978;2023-02-21T22:17:22;65618.91;;;4.31;100.00
37132;BME280;23035;50.032;21.978;2023-02-21T22:22:27;65634.72;;;4.42;100.00
37132;BME280;23035;50.032;21.978;2023-02-21T22:27:31;65637.94;;;4.45;100.00
37132;BME280;23035;50.032;21.978;2023-02-21T22:32:38;65635.34;;;4.45;100.00
37132;BME280;23035;50.032;21.978;2023-02-21T22:37:46;65636.88;;;4.44;100.00
37132;BME280;23035;50.032;21.978;2023-02-21T22:42:53;65645.94;;;4.52;100.00
37132;BME280;23035;50.032;21.978;2023-02-21T22:48:00;65634.91;;;4.47;100.00
37132;BME280;23035;50.032;21.978;2023-02-21T22:53:07;65645.94;;;4.52;100.00
37132;BME280;23035;50.032;21.978;2023-02-21T22:58:16;65683.28;;;4.88;100.00
37132;BME280;23035;50.032;21.978;2023-02-21T23:03:24;65731.00;;;5.38;100.00
37132;BME280;23035;50.032;21.978;2023-02-21T23:08:30;65705.19;;;5.09;100.00
37132;BME280;23035;50.032;21.978;2023-02-21T23:13:37;65688.19;;;4.95;100.00
37132;BME280;23035;50.032;21.978;2023-02-21T23:18:43;65681.69;;;4.86;100.00
37132;BME280;23035;50.032;21.978;2023-02-21T23:23:48;65670.13;;;4.80;100.00
37132;BME280;23035;50.032;21.978;2023-02-21T23:28:53;65663.63;;;4.72;100.00
37132;BME280;23035;50.032;21.978;2023-02-21T23:33:59;65648.78;;;4.60;100.00
37132;BME280;23035;50.032;21.978;2023-02-21T23:39:04;65642.72;;;4.49;100.00
37132;BME280;23035;50.032;21.978;2023-02-21T23:44:12;65631.53;;;4.39;100.00
37132;BME280;23035;50.032;21.978;2023-02-21T23:49:18;65630.00;;;4.40;100.00
37132;BME280;23035;50.032;21.978;2023-02-21T23:54:22;65629.47;;;4.39;100.00
37132;BME280;23035;50.032;21.978;2023-02-21T23:59:27;65636.22;;;4.41;100.00
